createdAt,value
2022-12-04T00:00:34.388Z,97.57
2022-12-04T00:03:01.249Z,97.43
2022-12-04T00:05:28.078Z,97.13
2022-12-04T00:07:55.215Z,97.02
2022-12-04T00:10:21.954Z,97.03
2022-12-04T00:12:48.761Z,96.81
2022-12-04T00:15:25.334Z,96.67
2022-12-04T00:17:52.800Z,96.63
2022-12-04T00:20:20.132Z,96.33
2022-12-04T00:22:47.136Z,96.62
2022-12-04T00:25:14.086Z,96.33
2022-12-04T00:27:40.917Z,96.12
2022-12-04T00:30:08.910Z,96.40
2022-12-04T00:32:36.321Z,96.03
2022-12-04T00:35:03.613Z,96.39
2022-12-04T00:37:30.394Z,96.02
2022-12-04T00:39:57.415Z,96.16
2022-12-04T00:42:24.329Z,95.95
2022-12-04T00:44:51.440Z,96.30
2022-12-04T00:47:18.213Z,96.02
2022-12-04T00:49:44.984Z,95.74
2022-12-04T00:52:11.766Z,96.09
2022-12-04T00:54:38.573Z,95.97
2022-12-04T00:57:05.374Z,95.95
2022-12-04T00:59:32.265Z,95.82
2022-12-04T01:01:59.059Z,95.98
2022-12-04T01:04:26.102Z,95.72
2022-12-04T01:06:53.002Z,95.58
2022-12-04T01:09:20.233Z,95.70
2022-12-04T01:11:47.351Z,96.37
2022-12-04T01:14:14.181Z,95.85
2022-12-04T01:16:41.368Z,95.83
2022-12-04T01:19:11.794Z,95.75
2022-12-04T01:21:40.185Z,95.53
2022-12-04T01:24:07.961Z,95.47
2022-12-04T01:26:35.423Z,95.65
2022-12-04T01:29:02.322Z,95.49
2022-12-04T01:31:29.204Z,95.61
2022-12-04T01:33:56.403Z,95.47
2022-12-04T01:36:28.201Z,95.56
2022-12-04T01:38:56.634Z,95.56
2022-12-04T01:41:28.142Z,95.46
2022-12-04T01:44:22.834Z,95.76
2022-12-04T01:47:01.365Z,95.68
2022-12-04T01:49:46.926Z,95.75
2022-12-04T01:52:22.771Z,95.79
2022-12-04T01:54:54.991Z,96.06
2022-12-04T01:57:25.805Z,96.17
2022-12-04T01:59:58.586Z,96.04
2022-12-04T02:02:35.363Z,96.15
2022-12-04T02:05:05.537Z,96.53
2022-12-04T02:07:33.069Z,96.03
2022-12-04T02:10:04.018Z,95.90
2022-12-04T02:12:44.356Z,95.84
2022-12-04T02:15:45.463Z,96.01
2022-12-04T02:19:31.427Z,96.12
2022-12-04T02:22:03.490Z,95.99
2022-12-04T02:25:12.006Z,95.98
2022-12-04T02:27:41.870Z,96.04
2022-12-04T02:30:12.293Z,96.17
2022-12-04T02:32:54.466Z,96.39
2022-12-04T02:35:31.802Z,96.28
2022-12-04T02:38:24.781Z,96.40
2022-12-04T02:40:59.604Z,96.58
2022-12-04T02:43:36.302Z,96.44
2022-12-04T02:46:16.700Z,96.63
2022-12-04T02:48:48.868Z,96.27
2022-12-04T02:51:20.915Z,96.22
2022-12-04T02:53:57.527Z,96.21
2022-12-04T02:56:33.050Z,96.21
2022-12-04T02:59:06.327Z,96.26
2022-12-04T03:01:43.965Z,96.28
2022-12-04T03:04:18.701Z,96.21
2022-12-04T03:06:51.422Z,96.23
2022-12-04T03:09:27.483Z,96.21
2022-12-04T03:12:01.365Z,95.90
2022-12-04T03:14:35.676Z,96.06
2022-12-04T03:17:14.618Z,96.11
2022-12-04T03:19:52.174Z,96.33
2022-12-04T03:22:21.192Z,96.65
2022-12-04T03:24:57.290Z,96.35
2022-12-04T03:27:30.220Z,96.32
2022-12-04T03:30:10.414Z,96.23
2022-12-04T03:32:52.308Z,96.51
2022-12-04T03:35:41.749Z,96.34
2022-12-04T03:38:14.470Z,96.27
2022-12-04T03:41:04.064Z,96.03
2022-12-04T03:43:49.241Z,96.08
2022-12-04T03:46:31.860Z,96.22
2022-12-04T03:49:25.793Z,96.18
2022-12-04T03:52:08.274Z,96.08
2022-12-04T03:54:43.802Z,96.15
2022-12-04T03:57:20.361Z,96.18
2022-12-04T04:00:06.083Z,96.28
2022-12-04T04:02:38.785Z,95.91
2022-12-04T04:05:09.525Z,95.93
2022-12-04T04:07:45.976Z,96.25
2022-12-04T04:10:19.375Z,96.31
2022-12-04T04:13:23.895Z,96.74
2022-12-04T04:16:14.441Z,96.67
2022-12-04T04:19:01.869Z,96.78
2022-12-04T04:21:52.657Z,97.02
2022-12-04T04:24:45.620Z,97.25
2022-12-04T04:27:13.369Z,97.20
2022-12-04T04:29:41.801Z,97.36
2022-12-04T04:32:08.481Z,97.36
2022-12-04T04:35:01.117Z,97.33
2022-12-04T04:38:00.129Z,97.00
2022-12-04T04:40:46.304Z,97.10
2022-12-04T04:43:42.120Z,97.12
2022-12-04T04:46:19.606Z,97.35
2022-12-04T04:48:51.752Z,97.47
2022-12-04T04:51:21.835Z,97.48
2022-12-04T04:53:56.935Z,97.42
2022-12-04T04:56:24.200Z,97.32
2022-12-04T04:58:50.971Z,97.63
2022-12-04T05:01:23.600Z,97.56
2022-12-04T05:03:50.462Z,97.60
2022-12-04T05:06:17.227Z,97.81
2022-12-04T05:08:44.669Z,97.99
2022-12-04T05:11:14.677Z,98.15
2022-12-04T05:13:42.680Z,98.44
2022-12-04T05:16:13.946Z,98.87
2022-12-04T05:18:41.705Z,99.17
2022-12-04T05:21:18.914Z,99.46
2022-12-04T05:23:45.726Z,99.37
2022-12-04T05:26:12.575Z,99.66
2022-12-04T05:28:41.206Z,99.64
2022-12-04T05:31:08.195Z,99.98
2022-12-04T05:33:35.099Z,100.00
2022-12-04T05:36:08.203Z,100.00
2022-12-04T05:38:35.242Z,100.00
2022-12-04T05:41:04.629Z,100.00
2022-12-04T05:43:32.482Z,100.00
2022-12-04T05:46:08.232Z,100.00
2022-12-04T05:48:36.264Z,100.00
2022-12-04T05:51:08.175Z,100.00
2022-12-04T05:53:35.526Z,100.00
2022-12-04T05:56:05.180Z,100.00
2022-12-04T05:58:37.109Z,100.00
2022-12-04T06:01:19.502Z,100.00
2022-12-04T06:03:46.963Z,100.00
2022-12-04T06:06:24.128Z,100.00
2022-12-04T06:08:53.681Z,99.94
2022-12-04T06:11:25.089Z,99.86
2022-12-04T06:13:52.005Z,100.00
2022-12-04T06:16:22.737Z,99.89
2022-12-04T06:18:52.786Z,99.73
2022-12-04T06:21:23.050Z,99.59
2022-12-04T06:23:49.928Z,99.52
2022-12-04T06:26:16.814Z,99.46
2022-12-04T06:28:44.239Z,99.48
2022-12-04T06:31:14.226Z,99.17
2022-12-04T06:33:41.615Z,99.33
2022-12-04T06:36:13.077Z,99.03
2022-12-04T06:38:40.182Z,98.98
2022-12-04T06:41:09.627Z,98.62
2022-12-04T06:43:36.717Z,98.78
2022-12-04T06:46:10.697Z,98.55
2022-12-04T06:48:38.332Z,98.57
2022-12-04T06:51:09.534Z,98.48
2022-12-04T06:53:36.495Z,98.40
2022-12-04T06:56:08.810Z,98.19
2022-12-04T06:58:36.369Z,98.26
2022-12-04T07:01:13.625Z,98.20
2022-12-04T07:03:46.214Z,98.15
2022-12-04T07:06:22.284Z,98.42
2022-12-04T07:08:53.855Z,98.36
2022-12-04T07:11:22.185Z,98.38
2022-12-04T07:13:50.749Z,98.48
2022-12-04T07:16:21.937Z,98.41
2022-12-04T07:18:54.048Z,98.40
2022-12-04T07:21:27.490Z,98.50
2022-12-04T07:23:58.659Z,98.33
2022-12-04T07:26:29.367Z,98.03
2022-12-04T07:28:56.794Z,97.95
2022-12-04T07:31:26.479Z,98.06
2022-12-04T07:33:54.598Z,97.82
2022-12-04T07:36:23.525Z,97.82
2022-12-04T07:38:51.640Z,97.80
2022-12-04T07:41:19.239Z,98.02
2022-12-04T07:43:46.787Z,98.28
2022-12-04T07:46:28.127Z,98.09
2022-12-04T07:48:57.187Z,98.49
2022-12-04T07:51:27.985Z,98.33
2022-12-04T07:54:02.656Z,98.59
2022-12-04T07:56:30.286Z,98.81
2022-12-04T07:58:57.052Z,99.07
2022-12-04T08:01:24.803Z,98.97
2022-12-04T08:03:56.813Z,99.27
2022-12-04T08:06:26.159Z,99.42
2022-12-04T08:08:53.905Z,99.41
2022-12-04T08:11:24.762Z,99.53
2022-12-04T08:14:04.594Z,99.12
2022-12-04T08:16:33.915Z,99.14
2022-12-04T08:19:01.877Z,98.76
2022-12-04T08:21:31.427Z,98.96
2022-12-04T08:24:00.165Z,99.55
2022-12-04T08:26:30.421Z,99.84
2022-12-04T08:28:58.174Z,100.00
2022-12-04T08:31:29.114Z,100.00
2022-12-04T08:33:58.609Z,100.00
2022-12-04T08:36:26.673Z,100.00
2022-12-04T08:38:53.574Z,100.00
2022-12-04T08:41:24.260Z,100.00
2022-12-04T08:43:54.877Z,100.00
2022-12-04T08:46:23.369Z,100.00
2022-12-04T08:48:50.195Z,100.00
2022-12-04T08:51:24.466Z,100.00
2022-12-04T08:53:57.847Z,100.00
2022-12-04T08:56:26.748Z,100.00
2022-12-04T08:58:55.114Z,100.00
2022-12-04T09:01:22.158Z,100.00
2022-12-04T09:03:49.238Z,100.00
2022-12-04T09:06:16.444Z,99.92
2022-12-04T09:08:43.614Z,99.95
2022-12-04T09:11:16.711Z,99.88
2022-12-04T09:13:44.389Z,99.98
2022-12-04T09:16:21.365Z,99.79
2022-12-04T09:18:49.701Z,99.48
2022-12-04T09:21:19.689Z,99.46
2022-12-04T09:23:47.113Z,98.96
2022-12-04T09:26:33.957Z,98.63
2022-12-04T09:29:03.120Z,99.11
2022-12-04T09:31:30.875Z,99.05
2022-12-04T09:34:02.297Z,98.83
2022-12-04T09:36:30.321Z,99.23
2022-12-04T09:38:57.955Z,99.19
2022-12-04T09:41:36.728Z,99.16
2022-12-04T09:44:26.151Z,99.00
2022-12-04T09:47:22.357Z,99.32
2022-12-04T09:50:01.163Z,99.29
2022-12-04T09:52:52.484Z,99.03
2022-12-04T09:55:46.389Z,99.11
2022-12-04T09:58:22.370Z,98.98
2022-12-04T10:00:52.422Z,99.51
2022-12-04T10:03:30.825Z,99.26
2022-12-04T10:06:20.393Z,99.27
2022-12-04T10:08:58.703Z,99.35
2022-12-04T10:11:40.831Z,99.20
2022-12-04T10:14:28.055Z,98.87
2022-12-04T10:17:16.030Z,99.09
2022-12-04T10:20:27.497Z,99.06
2022-12-04T10:23:26.735Z,98.95
2022-12-04T10:25:55.638Z,98.54
2022-12-04T10:28:39.203Z,98.54
2022-12-04T10:31:14.497Z,98.49
2022-12-04T10:34:06.218Z,98.60
2022-12-04T10:36:35.472Z,98.48
2022-12-04T10:39:36.796Z,98.21
2022-12-04T10:42:38.052Z,97.94
2022-12-04T10:45:08.462Z,98.11
2022-12-04T10:47:36.312Z,97.97
2022-12-04T10:50:15.144Z,98.11
2022-12-04T10:52:42.035Z,97.95
2022-12-04T10:55:09.609Z,98.00
2022-12-04T10:57:37.765Z,97.57
2022-12-04T11:00:27.186Z,97.99
2022-12-04T11:02:57.565Z,98.15
2022-12-04T11:05:28.448Z,98.15
2022-12-04T11:07:56.706Z,98.27
2022-12-04T11:10:40.565Z,98.04
2022-12-04T11:13:17.317Z,98.07
2022-12-04T11:15:54.296Z,98.24
2022-12-04T11:18:26.572Z,98.39
2022-12-04T11:21:23.534Z,98.55
2022-12-04T11:23:52.486Z,97.79
2022-12-04T11:26:35.813Z,98.00
2022-12-04T11:29:05.496Z,97.92
2022-12-04T11:31:33.331Z,98.30
2022-12-04T11:34:08.659Z,97.71
2022-12-04T11:36:43.275Z,98.11
2022-12-04T11:39:13.492Z,98.05
2022-12-04T11:41:40.642Z,97.27
2022-12-04T11:44:30.709Z,97.13
2022-12-04T11:47:02.003Z,97.03
2022-12-04T11:49:32.425Z,96.77
2022-12-04T11:52:17.984Z,96.38
2022-12-04T11:55:29.720Z,96.09
2022-12-04T11:58:11.435Z,96.48
2022-12-04T12:00:53.920Z,96.33
2022-12-04T12:03:44.002Z,96.18
2022-12-04T12:06:39.831Z,96.22
2022-12-04T12:09:36.429Z,96.02
2022-12-04T12:12:13.946Z,95.74
2022-12-04T12:15:05.797Z,95.61
2022-12-04T12:17:53.575Z,95.49
2022-12-04T12:20:30.714Z,95.48
2022-12-04T12:23:07.026Z,95.50
2022-12-04T12:25:52.636Z,95.12
2022-12-04T12:28:40.997Z,94.94
2022-12-04T12:31:39.879Z,94.98
2022-12-04T12:34:26.989Z,95.08
2022-12-04T12:37:00.597Z,95.52
2022-12-04T12:39:40.142Z,95.48
2022-12-04T12:42:21.434Z,95.77
2022-12-04T12:45:17.217Z,94.68
2022-12-04T12:47:49.626Z,94.69
2022-12-04T12:50:24.025Z,94.52
2022-12-04T12:53:13.048Z,94.42
2022-12-04T12:55:54.524Z,93.83
2022-12-04T12:58:47.580Z,93.88
2022-12-04T13:01:44.604Z,93.85
2022-12-04T13:04:40.357Z,93.90
2022-12-04T13:07:20.885Z,93.86
2022-12-04T13:10:12.780Z,93.95
2022-12-04T13:12:53.157Z,93.31
2022-12-04T13:15:24.795Z,93.56
2022-12-04T13:17:55.289Z,93.43
2022-12-04T13:20:47.382Z,93.18
2022-12-04T13:24:00.226Z,93.44
2022-12-04T13:27:19.351Z,93.65
2022-12-04T13:30:14.472Z,93.57
2022-12-04T13:33:16.021Z,93.29
2022-12-04T13:35:52.012Z,93.17
2022-12-04T13:38:50.680Z,92.73
2022-12-04T13:41:23.774Z,92.01
2022-12-04T13:43:52.457Z,92.58
2022-12-04T13:46:31.617Z,92.68
2022-12-04T13:49:16.147Z,92.55
2022-12-04T13:51:45.530Z,92.79
2022-12-04T13:54:12.319Z,92.57
2022-12-04T13:56:45.252Z,92.53
2022-12-04T13:59:27.264Z,92.58
2022-12-04T14:02:23.085Z,92.62
2022-12-04T14:04:59.910Z,92.29
2022-12-04T14:07:31.443Z,92.53
2022-12-04T14:10:04.957Z,92.75
2022-12-04T14:12:41.346Z,92.53
2022-12-04T14:15:25.191Z,92.81
2022-12-04T14:18:28.885Z,92.55
2022-12-04T14:21:04.699Z,92.65
2022-12-04T14:23:40.053Z,92.77
2022-12-04T14:27:03.593Z,92.73
2022-12-04T14:29:45.072Z,92.42
2022-12-04T14:32:20.886Z,92.08
2022-12-04T14:34:48.589Z,92.34
2022-12-04T14:37:24.289Z,92.46
2022-12-04T14:39:52.740Z,92.13
2022-12-04T14:42:48.857Z,91.71
2022-12-04T14:45:40.231Z,91.88
2022-12-04T14:48:27.094Z,92.05
2022-12-04T14:51:21.075Z,92.10
2022-12-04T14:54:01.465Z,92.14
2022-12-04T14:56:57.097Z,92.56
2022-12-04T14:59:33.004Z,92.46
2022-12-04T15:01:59.966Z,92.30
2022-12-04T15:04:32.287Z,92.43
2022-12-04T15:07:00.870Z,92.92
2022-12-04T15:09:47.823Z,92.78
2022-12-04T15:12:35.641Z,92.61
2022-12-04T15:15:13.286Z,92.75
2022-12-04T15:17:40.931Z,92.57
2022-12-04T15:20:27.151Z,92.57
2022-12-04T15:22:59.172Z,92.67
2022-12-04T15:25:37.174Z,92.62
2022-12-04T15:28:12.521Z,92.79
2022-12-04T15:30:42.692Z,92.77
2022-12-04T15:33:21.460Z,93.05
2022-12-04T15:35:55.777Z,92.76
2022-12-04T15:38:23.036Z,92.84
2022-12-04T15:40:59.010Z,92.52
2022-12-04T15:43:46.700Z,93.01
2022-12-04T15:46:33.826Z,92.85
2022-12-04T15:49:18.282Z,92.89
2022-12-04T15:51:47.630Z,92.81
2022-12-04T15:54:26.340Z,92.72
2022-12-04T15:57:17.714Z,92.65
2022-12-04T15:59:50.753Z,92.85
2022-12-04T16:02:41.571Z,92.83
2022-12-04T16:05:28.807Z,93.30
2022-12-04T16:08:00.286Z,93.04
2022-12-04T16:10:35.099Z,93.15
2022-12-04T16:13:05.812Z,93.23
2022-12-04T16:15:39.267Z,93.14
2022-12-04T16:18:07.786Z,93.42
2022-12-04T16:20:36.919Z,93.69
2022-12-04T16:23:04.918Z,93.60
2022-12-04T16:25:32.319Z,93.88
2022-12-04T16:28:00.689Z,93.94
2022-12-04T16:30:31.796Z,93.99
2022-12-04T16:32:58.637Z,94.17
2022-12-04T16:35:25.518Z,93.96
2022-12-04T16:37:52.383Z,94.38
2022-12-04T16:40:19.337Z,94.47
2022-12-04T16:42:46.483Z,94.36
2022-12-04T16:45:32.233Z,94.63
2022-12-04T16:47:59.311Z,94.89
2022-12-04T16:50:27.655Z,94.88
2022-12-04T16:52:55.022Z,94.79
2022-12-04T16:55:21.846Z,94.98
2022-12-04T16:57:48.837Z,94.87
2022-12-04T17:00:18.005Z,95.02
2022-12-04T17:02:46.258Z,95.19
2022-12-04T17:05:25.402Z,95.28
2022-12-04T17:07:53.093Z,95.34
2022-12-04T17:10:23.987Z,95.52
2022-12-04T17:12:54.819Z,95.48
2022-12-04T17:15:22.448Z,95.46
2022-12-04T17:17:50.361Z,95.70
2022-12-04T17:20:20.065Z,95.88
2022-12-04T17:22:47.500Z,96.19
2022-12-04T17:25:15.760Z,95.98
2022-12-04T17:27:42.931Z,96.11
2022-12-04T17:30:11.067Z,95.97
2022-12-04T17:32:38.466Z,95.66
2022-12-04T17:35:07.401Z,96.09
2022-12-04T17:37:35.761Z,96.15
2022-12-04T17:40:03.441Z,96.06
2022-12-04T17:42:30.560Z,96.34
2022-12-04T17:44:57.671Z,96.31
2022-12-04T17:47:24.649Z,96.19
2022-12-04T17:49:51.834Z,96.24
2022-12-04T17:52:22.657Z,96.60
2022-12-04T17:54:50.999Z,96.71
2022-12-04T17:57:18.942Z,96.81
2022-12-04T17:59:45.921Z,96.76
2022-12-04T18:02:13.352Z,96.91
2022-12-04T18:04:40.521Z,97.18
2022-12-04T18:07:08.044Z,96.85
2022-12-04T18:09:35.235Z,96.96
2022-12-04T18:12:02.701Z,97.09
2022-12-04T18:14:30.829Z,97.00
2022-12-04T18:16:58.561Z,97.21
2022-12-04T18:19:29.580Z,97.16
2022-12-04T18:21:57.329Z,97.05
2022-12-04T18:24:25.650Z,97.53
2022-12-04T18:26:53.118Z,97.19
2022-12-04T18:29:25.336Z,97.35
2022-12-04T18:31:52.480Z,96.80
2022-12-04T18:34:20.552Z,96.48
2022-12-04T18:36:48.127Z,96.68
2022-12-04T18:39:21.240Z,96.45
2022-12-04T18:41:49.357Z,96.42
2022-12-04T18:44:17.654Z,96.14
2022-12-04T18:46:44.548Z,95.91
2022-12-04T18:49:12.294Z,96.00
2022-12-04T18:51:46.978Z,95.54
2022-12-04T18:54:20.156Z,95.72
2022-12-04T18:56:47.587Z,95.54
2022-12-04T18:59:19.012Z,95.34
2022-12-04T19:01:45.893Z,95.35
2022-12-04T19:04:15.151Z,95.31
2022-12-04T19:06:46.220Z,95.57
2022-12-04T19:09:17.504Z,95.64
2022-12-04T19:11:45.599Z,95.72
2022-12-04T19:14:22.348Z,95.90
2022-12-04T19:16:50.879Z,95.58
2022-12-04T19:19:18.482Z,95.60
2022-12-04T19:21:45.339Z,95.47
2022-12-04T19:24:13.386Z,95.18
2022-12-04T19:26:40.852Z,95.21
2022-12-04T19:29:08.125Z,95.10
2022-12-04T19:31:37.773Z,95.10
2022-12-04T19:34:06.507Z,95.22
2022-12-04T19:36:35.279Z,95.12
2022-12-04T19:39:03.784Z,95.30
2022-12-04T19:41:34.426Z,95.13
2022-12-04T19:44:07.837Z,95.25
2022-12-04T19:46:41.621Z,95.16
2022-12-04T19:49:08.486Z,94.99
2022-12-04T19:51:38.621Z,95.11
2022-12-04T19:54:07.903Z,95.24
2022-12-04T19:56:35.725Z,95.29
2022-12-04T19:59:06.215Z,95.70
2022-12-04T20:01:35.195Z,95.46
2022-12-04T20:04:06.763Z,95.42
2022-12-04T20:06:44.115Z,95.38
2022-12-04T20:09:15.533Z,95.35
2022-12-04T20:11:42.802Z,95.07
2022-12-04T20:14:10.350Z,94.97
2022-12-04T20:16:38.906Z,95.18
2022-12-04T20:19:09.383Z,95.57
2022-12-04T20:21:36.224Z,95.97
2022-12-04T20:24:06.704Z,96.18
2022-12-04T20:26:38.850Z,96.06
2022-12-04T20:29:08.691Z,96.25
2022-12-04T20:31:41.559Z,96.14
2022-12-04T20:34:14.567Z,96.22
2022-12-04T20:36:45.174Z,95.98
2022-12-04T20:39:15.186Z,96.12
2022-12-04T20:41:42.726Z,95.75
2022-12-04T20:44:15.212Z,95.87
2022-12-04T20:46:42.888Z,95.74
2022-12-04T20:49:21.073Z,95.87
2022-12-04T20:51:49.936Z,96.29
2022-12-04T20:54:19.389Z,96.20
2022-12-04T20:56:49.085Z,96.36
2022-12-04T20:59:18.297Z,96.33
2022-12-04T21:01:45.668Z,96.12
2022-12-04T21:04:17.632Z,96.26
2022-12-04T21:06:45.326Z,96.41
2022-12-04T21:09:15.980Z,96.29
2022-12-04T21:11:47.454Z,96.16
2022-12-04T21:14:36.881Z,95.98
2022-12-04T21:17:06.922Z,96.54
2022-12-04T21:19:33.824Z,96.70
2022-12-04T21:22:00.775Z,96.28
2022-12-04T21:24:28.813Z,96.54
2022-12-04T21:26:56.388Z,96.64
2022-12-04T21:29:23.967Z,96.67
2022-12-04T21:31:50.841Z,96.67
2022-12-04T21:34:18.810Z,96.62
2022-12-04T21:36:46.560Z,96.80
2022-12-04T21:39:15.445Z,96.79
2022-12-04T21:42:01.358Z,96.64
2022-12-04T21:44:28.201Z,96.64
2022-12-04T21:46:55.266Z,96.80
2022-12-04T21:49:22.457Z,96.70
2022-12-04T21:51:58.464Z,96.72
2022-12-04T21:54:27.657Z,96.64
2022-12-04T21:56:55.244Z,96.77
2022-12-04T21:59:23.777Z,96.72
2022-12-04T22:01:50.750Z,96.97
2022-12-04T22:04:17.957Z,97.03
2022-12-04T22:06:44.715Z,96.86
2022-12-04T22:09:13.393Z,96.89
2022-12-04T22:11:41.701Z,96.99
2022-12-04T22:14:10.248Z,97.45
2022-12-04T22:16:41.969Z,96.91
2022-12-04T22:19:11.645Z,97.05
2022-12-04T22:21:39.601Z,97.28
2022-12-04T22:24:07.732Z,97.24
2022-12-04T22:26:34.510Z,97.33
2022-12-04T22:29:01.306Z,97.62
2022-12-04T22:31:30.087Z,97.53
2022-12-04T22:33:59.807Z,97.76
2022-12-04T22:36:32.875Z,97.79
2022-12-04T22:39:15.475Z,97.29
2022-12-04T22:41:42.592Z,97.45
2022-12-04T22:44:09.397Z,97.44
2022-12-04T22:46:36.291Z,97.35
2022-12-04T22:49:03.624Z,97.44
2022-12-04T22:51:30.745Z,97.50
2022-12-04T22:53:58.581Z,97.37
2022-12-04T22:56:31.636Z,97.61
2022-12-04T22:58:59.651Z,97.57
2022-12-04T23:01:32.529Z,97.57
2022-12-04T23:04:01.332Z,97.28
2022-12-04T23:06:30.968Z,97.45
2022-12-04T23:09:12.228Z,97.59
2022-12-04T23:11:39.397Z,97.38
2022-12-04T23:14:08.681Z,97.53
2022-12-04T23:16:38.677Z,97.57
2022-12-04T23:19:08.194Z,97.48
2022-12-04T23:21:35.596Z,97.66
2022-12-04T23:24:02.699Z,97.69
2022-12-04T23:26:36.837Z,97.81
2022-12-04T23:29:17.898Z,97.73
2022-12-04T23:31:50.480Z,97.98
2022-12-04T23:34:17.517Z,97.61
2022-12-04T23:36:44.276Z,97.73
2022-12-04T23:39:11.122Z,97.76
2022-12-04T23:41:37.966Z,97.59
2022-12-04T23:44:05.000Z,97.71
2022-12-04T23:46:32.913Z,97.82
2022-12-04T23:49:01.281Z,97.90
2022-12-04T23:51:28.957Z,97.98
2022-12-04T23:53:56.117Z,97.89
2022-12-04T23:56:26.495Z,97.86
2022-12-04T23:58:56.809Z,97.89
